Time;durP1;ratioP1;P1;durP2;ratioP2;P2;SDS_P1;SDS_P2;PMS_P1;PMS_P2;Temp;Humidity;BMP_temperature;BMP_pressure;BME280_temperature;BME280_humidity;BME280_pressure;Samples;Min_cycle;Max_cycle;Signal;HPM_P1;HPM_P2
2024/01/18 00:03:40;;;;;;;1.02;0.63;;;9.70;99.90;;;;;;10057146;28;20041;-68
2024/01/18 00:08:31;;;;;;;0.90;0.70;;;9.80;99.90;;;;;;10056301;28;20029;-66
2024/01/18 00:13:21;;;;;;;0.77;0.43;;;9.80;99.90;;;;;;10088944;28;20029;-69
2024/01/18 00:18:12;;;;;;;0.80;0.75;;;9.80;99.90;;;;;;10055556;28;20110;-66
2024/01/18 00:23:03;;;;;;;1.52;0.80;;;9.80;99.90;;;;;;10056208;28;20053;-70
2024/01/18 00:27:54;;;;;;;1.48;1.02;;;9.80;99.90;;;;;;10056274;28;20553;-68
2024/01/18 00:32:44;;;;;;;0.80;0.55;;;9.80;99.90;;;;;;10055775;28;20037;-65
2024/01/18 00:37:35;;;;;;;0.55;0.50;;;9.80;99.90;;;;;;10046517;28;20022;-67
2024/01/18 00:42:26;;;;;;;1.20;0.70;;;9.90;99.90;;;;;;10046197;28;20073;-66
2024/01/18 00:47:16;;;;;;;1.85;0.95;;;9.90;99.90;;;;;;10056469;28;20030;-66
2024/01/18 00:52:07;;;;;;;1.08;0.63;;;9.90;99.90;;;;;;10053612;28;20038;-67
2024/01/18 00:56:58;;;;;;;1.35;0.80;;;9.80;99.90;;;;;;10055190;28;20443;-67
2024/01/18 01:01:48;;;;;;;1.23;0.73;;;9.80;99.90;;;;;;10055902;28;20049;-67
2024/01/18 01:06:39;;;;;;;1.90;0.60;;;9.80;99.90;;;;;;10054802;28;20032;-68
2024/01/18 01:11:29;;;;;;;2.03;0.90;;;9.90;99.90;;;;;;10055793;28;20056;-67
2024/01/18 01:16:20;;;;;;;0.73;0.63;;;9.90;99.90;;;;;;10055103;28;20079;-67
2024/01/18 01:21:11;;;;;;;0.80;0.75;;;9.90;99.90;;;;;;10055188;28;20060;-66
2024/01/18 01:26:02;;;;;;;1.40;0.73;;;9.90;99.90;;;;;;10055270;28;20033;-66
2024/01/18 01:30:52;;;;;;;0.80;0.68;;;9.90;99.90;;;;;;10060334;28;20398;-68
2024/01/18 01:35:43;;;;;;;1.23;0.55;;;10.00;99.90;;;;;;10062612;28;20112;-67
2024/01/18 01:40:33;;;;;;;1.00;0.70;;;10.00;99.90;;;;;;10062282;28;20034;-67
2024/01/18 01:45:24;;;;;;;1.45;0.80;;;10.00;99.90;;;;;;10062492;28;20147;-66
2024/01/18 01:50:15;;;;;;;1.77;0.63;;;10.00;99.90;;;;;;10061395;28;20487;-65
2024/01/18 01:55:07;;;;;;;2.47;0.60;;;10.00;99.90;;;;;;10061985;28;20125;-65
2024/01/18 01:59:58;;;;;;;0.68;0.57;;;10.00;99.90;;;;;;10063358;28;20091;-65
2024/01/18 02:04:50;;;;;;;0.65;0.60;;;10.00;99.90;;;;;;10066387;28;20037;-65
2024/01/18 02:09:41;;;;;;;1.27;0.80;;;10.00;99.90;;;;;;10060335;28;20072;-66
2024/01/18 02:14:32;;;;;;;0.77;0.52;;;10.00;99.90;;;;;;10061159;28;20025;-65
2024/01/18 02:19:24;;;;;;;1.25;0.73;;;10.00;99.90;;;;;;10061022;28;20038;-65
2024/01/18 02:24:32;;;;;;;1.23;0.63;;;10.00;99.90;;;;;;10060389;28;20045;-66
2024/01/18 02:29:23;;;;;;;0.68;0.50;;;10.00;99.90;;;;;;10060735;28;20021;-65
2024/01/18 02:34:17;;;;;;;0.85;0.60;;;10.00;99.90;;;;;;10068363;28;20052;-66
2024/01/18 02:39:08;;;;;;;0.93;0.55;;;10.00;99.90;;;;;;10059270;28;20017;-66
2024/01/18 02:44:01;;;;;;;1.30;0.90;;;10.00;99.90;;;;;;10059450;28;20038;-66
2024/01/18 02:48:52;;;;;;;1.08;0.98;;;10.00;99.90;;;;;;10059998;28;20183;-67
2024/01/18 02:53:43;;;;;;;1.30;0.63;;;10.00;99.90;;;;;;10059777;28;20124;-65
2024/01/18 02:58:33;;;;;;;1.83;0.60;;;10.10;99.90;;;;;;10058776;28;20549;-67
2024/01/18 03:03:25;;;;;;;1.63;0.73;;;10.10;99.90;;;;;;10057811;28;20554;-66
2024/01/18 03:08:15;;;;;;;2.63;1.80;;;10.10;99.90;;;;;;10059302;28;20422;-66
2024/01/18 03:13:07;;;;;;;2.72;0.55;;;10.10;99.90;;;;;;10059211;28;20041;-66
2024/01/18 03:17:57;;;;;;;0.93;0.60;;;10.10;99.90;;;;;;10059000;28;20032;-66
2024/01/18 03:22:48;;;;;;;1.33;0.50;;;10.10;99.90;;;;;;10058381;28;20045;-69
2024/01/18 03:27:39;;;;;;;2.47;0.68;;;10.10;99.90;;;;;;10058518;28;20029;-66
2024/01/18 03:32:30;;;;;;;2.30;0.80;;;10.10;99.90;;;;;;10058257;28;20499;-67
2024/01/18 03:37:21;;;;;;;1.42;0.68;;;10.20;99.90;;;;;;10055531;28;20022;-67
2024/01/18 03:42:12;;;;;;;1.88;0.57;;;10.20;99.90;;;;;;10058163;28;20049;-66
2024/01/18 03:47:03;;;;;;;1.65;0.50;;;10.20;99.90;;;;;;10057811;28;20607;-66
2024/01/18 03:51:53;;;;;;;1.02;0.70;;;10.20;99.90;;;;;;10057471;28;20037;-68
2024/01/18 03:56:44;;;;;;;1.42;1.05;;;10.20;99.90;;;;;;10056978;28;20043;-67
2024/01/18 04:01:35;;;;;;;2.10;0.60;;;10.20;99.90;;;;;;10052292;28;20086;-68
2024/01/18 04:06:25;;;;;;;0.70;0.47;;;10.20;99.90;;;;;;10054750;28;20029;-66
2024/01/18 04:11:16;;;;;;;0.80;0.50;;;10.20;99.90;;;;;;10056434;28;20036;-66
2024/01/18 04:16:08;;;;;;;1.10;0.40;;;10.20;99.90;;;;;;10056268;28;20021;-67
2024/01/18 04:20:58;;;;;;;3.15;0.60;;;10.20;99.90;;;;;;10056029;28;20045;-68
2024/01/18 04:25:52;;;;;;;0.80;0.40;;;10.20;99.90;;;;;;10056019;28;20751;-65
2024/01/18 04:30:43;;;;;;;0.93;0.50;;;10.20;99.90;;;;;;10056247;28;20029;-66
2024/01/18 04:35:33;;;;;;;1.08;0.75;;;10.20;99.90;;;;;;10056008;28;20037;-67
2024/01/18 04:40:24;;;;;;;0.93;0.45;;;10.10;99.90;;;;;;10054548;28;20029;-67
2024/01/18 04:45:14;;;;;;;0.73;0.45;;;10.20;99.90;;;;;;10055827;28;20470;-68
2024/01/18 04:50:08;;;;;;;1.35;0.80;;;10.20;99.90;;;;;;10055511;28;20116;-67
2024/01/18 04:55:02;;;;;;;0.70;0.68;;;10.20;99.90;;;;;;10054308;28;20049;-67
2024/01/18 04:59:53;;;;;;;2.70;1.07;;;10.20;99.90;;;;;;10053211;28;20025;-67
2024/01/18 05:04:44;;;;;;;2.05;1.40;;;10.20;99.90;;;;;;10058399;28;20473;-67
2024/01/18 05:09:34;;;;;;;2.70;2.00;;;9.70;99.90;;;;;;10063552;28;20044;-68
2024/01/18 05:14:25;;;;;;;3.45;1.75;;;9.10;99.90;;;;;;10061579;28;20400;-67
2024/01/18 05:19:16;;;;;;;2.45;1.55;;;8.70;99.90;;;;;;10062699;28;20060;-69
2024/01/18 05:24:07;;;;;;;2.05;1.60;;;8.50;99.90;;;;;;10063130;28;20040;-67
2024/01/18 05:28:57;;;;;;;2.03;1.40;;;8.30;99.90;;;;;;10067575;28;20018;-66
2024/01/18 05:33:48;;;;;;;2.13;1.38;;;8.20;99.90;;;;;;10062455;28;20029;-68
2024/01/18 05:38:39;;;;;;;1.63;1.33;;;8.00;99.90;;;;;;10062693;28;20032;-67
2024/01/18 05:43:30;;;;;;;2.13;1.45;;;7.80;99.90;;;;;;10062187;28;20680;-66
2024/01/18 05:48:21;;;;;;;1.38;1.20;;;7.70;99.90;;;;;;10062127;28;20036;-70
2024/01/18 05:53:11;;;;;;;1.25;0.98;;;7.70;99.90;;;;;;10061693;28;20217;-66
2024/01/18 05:58:02;;;;;;;1.50;1.35;;;7.60;99.90;;;;;;10061815;28;20117;-66
2024/01/18 06:02:53;;;;;;;1.65;1.40;;;7.50;99.90;;;;;;10060281;28;20045;-66
2024/01/18 06:07:44;;;;;;;2.30;1.48;;;7.40;99.90;;;;;;10061009;28;20028;-67
2024/01/18 06:12:34;;;;;;;1.63;1.30;;;7.30;99.90;;;;;;10060917;28;20041;-66
2024/01/18 06:17:25;;;;;;;1.98;1.50;;;7.30;99.90;;;;;;10054569;28;20048;-67
2024/01/18 06:22:16;;;;;;;1.65;1.40;;;7.30;99.90;;;;;;10054646;28;20146;-66
2024/01/18 06:27:06;;;;;;;2.55;1.20;;;7.30;99.90;;;;;;10059893;28;20037;-66
2024/01/18 06:31:57;;;;;;;1.30;1.15;;;7.30;99.90;;;;;;10060031;28;20055;-69
2024/01/18 06:36:48;;;;;;;1.48;1.27;;;7.20;99.90;;;;;;10066788;28;20084;-66
2024/01/18 06:41:39;;;;;;;1.42;1.27;;;7.10;99.90;;;;;;10060904;28;20134;-66
2024/01/18 06:46:31;;;;;;;1.65;1.48;;;7.10;99.90;;;;;;10054778;28;20036;-67
2024/01/18 06:51:22;;;;;;;3.03;1.40;;;7.00;99.90;;;;;;10052840;28;20032;-65
2024/01/18 06:56:16;;;;;;;1.45;1.20;;;7.00;99.90;;;;;;10047935;28;20040;-66
2024/01/18 07:01:07;;;;;;;1.73;1.20;;;7.00;99.90;;;;;;10045737;28;20033;-65
2024/01/18 07:05:58;;;;;;;1.77;1.25;;;6.90;99.90;;;;;;10076729;28;20024;-65
2024/01/18 07:10:48;;;;;;;1.92;1.30;;;6.70;99.90;;;;;;10069460;28;20034;-64
2024/01/18 07:15:39;;;;;;;1.90;1.10;;;6.70;99.90;;;;;;10075474;28;20499;-67
2024/01/18 07:20:29;;;;;;;1.88;1.38;;;6.60;99.90;;;;;;10071958;28;20046;-66
2024/01/18 07:25:21;;;;;;;2.75;1.85;;;6.60;99.90;;;;;;10070247;28;20044;-67
2024/01/18 07:30:14;;;;;;;1.35;1.23;;;6.40;99.90;;;;;;10065242;28;20030;-65
2024/01/18 07:35:04;;;;;;;2.92;1.80;;;6.50;99.90;;;;;;10073201;28;20025;-66
2024/01/18 07:39:55;;;;;;;1.95;1.38;;;6.50;99.90;;;;;;10073530;28;20112;-66
2024/01/18 07:44:47;;;;;;;3.78;1.65;;;6.30;99.90;;;;;;10073632;28;20526;-69
2024/01/18 07:49:42;;;;;;;2.40;1.85;;;6.20;99.90;;;;;;10074730;28;20550;-69
2024/01/18 07:54:33;;;;;;;2.63;1.50;;;6.10;99.90;;;;;;10073800;28;20124;-70
2024/01/18 07:59:23;;;;;;;3.30;1.90;;;6.10;99.90;;;;;;10073413;28;20108;-70
2024/01/18 08:04:15;;;;;;;1.98;1.55;;;6.10;99.90;;;;;;10056610;28;20087;-68
2024/01/18 08:09:05;;;;;;;2.10;1.70;;;6.00;99.90;;;;;;10056523;28;20044;-69
2024/01/18 08:13:56;;;;;;;2.28;1.48;;;5.80;99.90;;;;;;10056330;28;20411;-68
2024/01/18 08:18:46;;;;;;;2.95;1.63;;;5.60;99.90;;;;;;10055031;28;20044;-68
2024/01/18 08:23:37;;;;;;;2.35;1.58;;;5.60;99.90;;;;;;10055978;28;20187;-69
2024/01/18 08:28:28;;;;;;;3.22;1.95;;;5.50;99.90;;;;;;10055904;28;20033;-68
2024/01/18 08:33:20;;;;;;;4.20;1.80;;;5.60;99.90;;;;;;10055991;28;20021;-69
2024/01/18 08:38:10;;;;;;;2.92;2.03;;;5.50;99.90;;;;;;10054779;28;20037;-69
2024/01/18 08:43:02;;;;;;;3.45;1.85;;;5.40;99.90;;;;;;10055318;28;20048;-69
2024/01/18 08:47:52;;;;;;;2.85;1.48;;;5.10;99.90;;;;;;10055201;28;20026;-67
2024/01/18 08:52:43;;;;;;;1.95;1.35;;;5.10;99.90;;;;;;10056655;28;20034;-67
2024/01/18 08:57:34;;;;;;;2.00;1.33;;;5.10;99.90;;;;;;10052825;28;20025;-68
2024/01/18 09:02:25;;;;;;;2.17;1.80;;;5.00;99.90;;;;;;10051002;28;20178;-67
2024/01/18 09:07:16;;;;;;;2.88;1.40;;;4.90;99.90;;;;;;10052533;28;20018;-67
2024/01/18 09:12:06;;;;;;;1.70;1.40;;;4.90;99.90;;;;;;10054914;28;20037;-68
2024/01/18 09:16:57;;;;;;;3.08;1.58;;;4.90;99.90;;;;;;10055083;28;20034;-69
2024/01/18 09:21:48;;;;;;;2.05;1.58;;;4.80;99.90;;;;;;10054694;28;20088;-69
2024/01/18 09:26:39;;;;;;;1.70;1.35;;;4.80;99.90;;;;;;10054860;28;20029;-67
2024/01/18 09:31:30;;;;;;;1.75;1.40;;;4.70;99.90;;;;;;10049154;28;20033;-69
2024/01/18 09:36:20;;;;;;;1.73;1.10;;;4.80;99.90;;;;;;10050351;28;20063;-68
2024/01/18 09:41:11;;;;;;;2.15;1.70;;;4.80;99.90;;;;;;10046843;28;20076;-71
2024/01/18 09:46:04;;;;;;;1.95;1.25;;;4.70;99.90;;;;;;10048000;28;20183;-70
2024/01/18 09:50:57;;;;;;;3.47;1.35;;;4.80;99.90;;;;;;10058015;28;20040;-69
2024/01/18 09:55:50;;;;;;;1.75;1.38;;;4.80;99.90;;;;;;10050596;28;20136;-71
2024/01/18 10:00:46;;;;;;;1.50;1.23;;;4.70;99.90;;;;;;10055520;28;20037;-71
2024/01/18 10:05:37;;;;;;;1.65;1.23;;;4.70;99.90;;;;;;10059842;28;20125;-70
2024/01/18 10:10:28;;;;;;;1.85;1.10;;;4.80;99.90;;;;;;10056653;28;20037;-69
2024/01/18 10:15:32;;;;;;;1.05;0.90;;;4.60;99.90;;;;;;10053113;28;20476;-69
2024/01/18 10:20:23;;;;;;;1.58;1.08;;;4.50;99.90;;;;;;10042885;28;20045;-68
2024/01/18 10:25:14;;;;;;;1.35;0.70;;;4.50;99.90;;;;;;10045372;28;20045;-68
2024/01/18 10:30:08;;;;;;;1.92;0.90;;;4.50;99.90;;;;;;10044973;28;20051;-68
2024/01/18 10:34:59;;;;;;;1.40;1.02;;;4.60;99.90;;;;;;10053620;28;20502;-68
2024/01/18 10:39:49;;;;;;;1.92;0.93;;;4.60;99.90;;;;;;10050751;28;20037;-67
2024/01/18 10:44:42;;;;;;;0.98;0.60;;;4.50;99.90;;;;;;10043408;28;20044;-67
2024/01/18 10:49:35;;;;;;;1.63;0.82;;;4.40;99.90;;;;;;10043368;28;20026;-67
2024/01/18 10:54:27;;;;;;;1.05;0.70;;;4.30;99.90;;;;;;10039691;28;20116;-67
2024/01/18 10:59:18;;;;;;;1.13;0.82;;;4.30;99.90;;;;;;10049553;28;20510;-67
2024/01/18 11:04:11;;;;;;;1.98;0.70;;;4.40;99.90;;;;;;10047582;28;20029;-68
2024/01/18 11:09:03;;;;;;;1.02;0.70;;;4.30;99.90;;;;;;10042606;28;20022;-67
2024/01/18 11:13:54;;;;;;;1.83;0.77;;;4.40;99.90;;;;;;10037763;28;20082;-67
2024/01/18 11:18:50;;;;;;;0.70;0.70;;;4.20;99.90;;;;;;10045438;28;20076;-67
2024/01/18 11:23:41;;;;;;;0.90;0.73;;;4.20;99.90;;;;;;10048112;28;20153;-64
2024/01/18 11:28:32;;;;;;;0.77;0.57;;;4.30;99.90;;;;;;10039747;28;20084;-66
2024/01/18 11:33:25;;;;;;;2.22;0.65;;;4.20;99.90;;;;;;10052314;28;20033;-67
2024/01/18 11:38:32;;;;;;;1.88;1.00;;;4.20;99.90;;;;;;10049649;28;20072;-67
2024/01/18 11:43:56;;;;;;;1.98;1.05;;;4.20;99.90;;;;;;10053768;28;20041;-67
2024/01/18 11:48:47;;;;;;;0.98;0.73;;;4.30;99.90;;;;;;10049649;28;20033;-68
2024/01/18 11:53:38;;;;;;;2.40;1.05;;;4.30;99.90;;;;;;10057379;28;20029;-69
2024/01/18 11:58:30;;;;;;;1.73;1.10;;;4.40;99.90;;;;;;10056653;28;20045;-68
2024/01/18 12:03:21;;;;;;;2.13;1.10;;;4.50;99.90;;;;;;10048939;28;20060;-68
2024/01/18 12:08:13;;;;;;;2.05;1.05;;;4.50;99.90;;;;;;10044439;28;20510;-68
2024/01/18 12:13:04;;;;;;;1.58;0.93;;;4.50;99.90;;;;;;10035335;28;20033;-68
2024/01/18 12:17:55;;;;;;;1.40;0.98;;;4.50;99.90;;;;;;10042002;28;20025;-68
2024/01/18 12:22:45;;;;;;;1.90;1.40;;;4.40;99.90;;;;;;10039591;28;20080;-67
2024/01/18 12:27:36;;;;;;;2.08;1.67;;;4.40;99.90;;;;;;10043974;28;20029;-68
2024/01/18 12:32:27;;;;;;;3.00;1.25;;;4.40;99.90;;;;;;10042202;28;20029;-68
2024/01/18 12:37:18;;;;;;;3.22;1.13;;;4.40;99.90;;;;;;10046609;28;20029;-68
2024/01/18 12:42:08;;;;;;;2.70;1.67;;;4.30;99.90;;;;;;10051881;28;20057;-68
2024/01/18 12:46:59;;;;;;;2.22;1.35;;;4.30;99.90;;;;;;10049965;28;20553;-68
2024/01/18 12:51:53;;;;;;;2.67;1.10;;;4.20;99.90;;;;;;10053693;28;20064;-69
2024/01/18 12:56:44;;;;;;;1.35;1.23;;;4.30;99.90;;;;;;10055224;28;20025;-67
2024/01/18 13:01:35;;;;;;;1.70;0.88;;;4.30;99.90;;;;;;10053535;28;20034;-67
2024/01/18 13:06:25;;;;;;;3.33;1.27;;;4.30;99.90;;;;;;10049574;28;20029;-65
2024/01/18 13:11:16;;;;;;;2.05;1.27;;;4.20;99.90;;;;;;10053411;28;20029;-66
2024/01/18 13:16:07;;;;;;;1.92;1.02;;;4.10;99.90;;;;;;10054289;28;20037;-68
2024/01/18 13:20:57;;;;;;;4.07;1.20;;;4.10;99.90;;;;;;10054884;28;20640;-70
2024/01/18 13:25:48;;;;;;;1.75;0.98;;;4.00;99.90;;;;;;10058723;28;20442;-69
2024/01/18 13:30:39;;;;;;;1.65;1.08;;;4.00;99.90;;;;;;10061888;28;20036;-65
2024/01/18 13:35:29;;;;;;;2.15;1.23;;;4.10;99.90;;;;;;10061963;28;20036;-66
2024/01/18 13:40:22;;;;;;;2.58;1.48;;;4.10;99.90;;;;;;10061656;28;20124;-67
2024/01/18 13:45:13;;;;;;;1.63;1.27;;;4.10;99.90;;;;;;10061884;28;20041;-67
2024/01/18 13:50:04;;;;;;;1.75;1.50;;;4.00;99.90;;;;;;10062243;28;20026;-66
2024/01/18 13:54:55;;;;;;;3.65;1.60;;;4.00;99.90;;;;;;10056957;28;20551;-66
2024/01/18 13:59:45;;;;;;;1.85;1.23;;;4.10;99.90;;;;;;10061462;28;20026;-67
2024/01/18 14:04:36;;;;;;;2.35;1.67;;;4.10;99.90;;;;;;10060969;28;20536;-67
2024/01/18 14:09:27;;;;;;;2.13;1.63;;;4.10;99.90;;;;;;10059557;28;20068;-65
2024/01/18 14:14:18;;;;;;;3.08;2.30;;;4.10;99.90;;;;;;10059889;28;20033;-68
2024/01/18 14:19:09;;;;;;;3.70;1.40;;;4.10;99.90;;;;;;10059997;28;20577;-68
2024/01/18 14:24:00;;;;;;;2.53;1.85;;;4.10;99.90;;;;;;10059000;28;20515;-68
2024/01/18 14:28:50;;;;;;;3.70;1.77;;;4.00;99.90;;;;;;10060358;28;20065;-67
2024/01/18 14:33:41;;;;;;;2.70;1.45;;;4.00;99.90;;;;;;10056646;28;20607;-71
2024/01/18 14:38:32;;;;;;;4.15;2.00;;;4.00;99.90;;;;;;10058681;28;20120;-70
2024/01/18 14:43:22;;;;;;;3.50;1.52;;;4.00;99.90;;;;;;10060885;28;20129;-73
2024/01/18 14:48:14;;;;;;;3.38;1.70;;;4.10;99.90;;;;;;10060415;28;20034;-71
2024/01/18 14:53:08;;;;;;;3.47;1.88;;;4.10;99.90;;;;;;10059606;28;20095;-67
2024/01/18 14:57:59;;;;;;;3.45;1.48;;;4.10;99.90;;;;;;10065297;28;20052;-71
2024/01/18 15:02:50;;;;;;;3.03;2.00;;;4.10;99.90;;;;;;10059662;28;20423;-69
2024/01/18 15:07:41;;;;;;;4.13;1.70;;;4.10;99.90;;;;;;10058957;28;20029;-69
2024/01/18 15:12:32;;;;;;;4.95;1.90;;;4.10;99.90;;;;;;10050390;28;20116;-69
2024/01/18 15:17:22;;;;;;;3.45;2.17;;;4.20;99.90;;;;;;10057486;28;20116;-69
2024/01/18 15:22:15;;;;;;;3.75;2.50;;;4.40;99.90;;;;;;10058731;28;20088;-69
2024/01/18 15:27:06;;;;;;;3.78;2.08;;;4.30;99.90;;;;;;10057604;28;20397;-69
2024/01/18 15:31:57;;;;;;;4.95;2.03;;;4.20;99.90;;;;;;10059049;28;20623;-70
2024/01/18 15:36:48;;;;;;;5.00;2.28;;;4.20;99.90;;;;;;10056188;28;20155;-72
2024/01/18 15:41:44;;;;;;;3.38;2.03;;;4.10;99.90;;;;;;10058135;28;21178;-69
2024/01/18 15:46:35;;;;;;;3.08;1.92;;;4.20;99.90;;;;;;10056581;28;20032;-72
2024/01/18 15:51:26;;;;;;;4.25;2.47;;;4.20;99.90;;;;;;10058897;28;20025;-71
2024/01/18 15:56:17;;;;;;;5.13;2.60;;;4.10;99.90;;;;;;10058775;28;20035;-72
2024/01/18 16:01:07;;;;;;;9.38;2.95;;;4.10;99.90;;;;;;10057825;28;20033;-71
2024/01/18 16:05:59;;;;;;;6.55;3.17;;;4.10;99.90;;;;;;10056823;28;20034;-71
2024/01/18 16:10:49;;;;;;;5.05;2.83;;;4.10;99.90;;;;;;10056759;28;20443;-72
2024/01/18 16:15:40;;;;;;;5.55;3.35;;;4.10;99.90;;;;;;10056631;28;20033;-72
2024/01/18 16:20:30;;;;;;;5.63;3.38;;;4.10;99.90;;;;;;10055869;28;20053;-71
2024/01/18 16:25:21;;;;;;;7.43;3.72;;;4.10;99.90;;;;;;10056049;28;20038;-71
2024/01/18 16:30:12;;;;;;;7.03;3.72;;;4.00;99.90;;;;;;10055314;28;20037;-70
2024/01/18 16:35:03;;;;;;;7.72;3.92;;;3.90;99.90;;;;;;10055733;28;20040;-71
2024/01/18 16:39:54;;;;;;;7.85;4.13;;;4.00;99.90;;;;;;10058115;28;20026;-69
2024/01/18 16:44:44;;;;;;;7.57;4.00;;;4.00;99.90;;;;;;10055941;28;20041;-71
2024/01/18 16:49:35;;;;;;;6.63;3.88;;;4.00;99.90;;;;;;10046986;28;20104;-71
2024/01/18 16:54:26;;;;;;;6.43;3.83;;;4.00;99.90;;;;;;10050095;28;20033;-70
2024/01/18 16:59:17;;;;;;;11.20;4.38;;;3.90;99.90;;;;;;10051776;28;20114;-68
2024/01/18 17:04:11;;;;;;;6.30;2.97;;;4.00;99.90;;;;;;10054817;28;20568;-72
2024/01/18 17:09:01;;;;;;;5.40;3.45;;;4.00;99.90;;;;;;10054740;28;20025;-68
2024/01/18 17:13:52;;;;;;;7.50;3.92;;;3.80;99.90;;;;;;10054904;28;20830;-68
2024/01/18 17:18:42;;;;;;;9.68;3.95;;;3.90;99.90;;;;;;10054533;28;20100;-67
2024/01/18 17:23:33;;;;;;;8.88;4.30;;;3.80;99.90;;;;;;10056088;28;20056;-69
2024/01/18 17:28:24;;;;;;;8.32;3.45;;;3.70;99.90;;;;;;10054924;28;20084;-68
2024/01/18 17:33:14;;;;;;;6.95;3.47;;;3.80;99.90;;;;;;10086616;28;20041;-68
2024/01/18 17:38:06;;;;;;;11.25;3.65;;;3.80;99.90;;;;;;10054535;28;20041;-68
2024/01/18 17:42:57;;;;;;;7.07;3.20;;;3.80;99.90;;;;;;10054748;28;20034;-69
2024/01/18 17:47:47;;;;;;;7.53;3.45;;;3.70;99.90;;;;;;10054774;28;20041;-68
2024/01/18 17:52:38;;;;;;;7.38;2.90;;;3.70;99.90;;;;;;10055955;28;20084;-68
2024/01/18 17:57:30;;;;;;;8.00;4.82;;;3.70;99.90;;;;;;10072988;28;20036;-68
2024/01/18 18:02:21;;;;;;;9.32;4.05;;;3.70;99.90;;;;;;10066852;28;20036;-70
2024/01/18 18:07:12;;;;;;;7.82;3.47;;;3.70;99.90;;;;;;10071506;28;20477;-69
2024/01/18 18:12:03;;;;;;;5.68;3.20;;;3.70;99.90;;;;;;10058067;28;20026;-68
2024/01/18 18:16:55;;;;;;;8.05;2.88;;;3.60;99.90;;;;;;10077007;28;20025;-70
2024/01/18 18:21:45;;;;;;;6.68;3.60;;;3.70;99.90;;;;;;10064714;28;20149;-68
2024/01/18 18:26:36;;;;;;;5.95;3.47;;;3.60;99.90;;;;;;10037310;28;20102;-68
2024/01/18 18:31:27;;;;;;;7.85;3.85;;;3.70;99.90;;;;;;10042475;28;20364;-70
2024/01/18 18:36:18;;;;;;;6.20;3.45;;;3.60;99.90;;;;;;10042415;28;20026;-68
2024/01/18 18:41:08;;;;;;;7.72;3.95;;;3.60;99.90;;;;;;10045627;28;20504;-69
2024/01/18 18:45:59;;;;;;;9.77;3.85;;;3.60;99.90;;;;;;10046000;28;20117;-70
2024/01/18 18:50:53;;;;;;;5.05;3.10;;;3.60;99.90;;;;;;10052734;28;20041;-70
2024/01/18 18:55:44;;;;;;;8.63;4.60;;;3.60;99.90;;;;;;10058071;28;20029;-70
2024/01/18 19:00:34;;;;;;;6.95;4.20;;;3.60;99.90;;;;;;10053417;28;20036;-67
2024/01/18 19:05:25;;;;;;;11.43;4.25;;;3.60;99.90;;;;;;10049216;28;20049;-68
2024/01/18 19:10:15;;;;;;;8.30;3.80;;;3.60;99.90;;;;;;10045882;28;20072;-69
2024/01/18 19:15:06;;;;;;;7.75;4.07;;;3.60;99.90;;;;;;10055075;28;20399;-70
2024/01/18 19:19:58;;;;;;;7.28;3.60;;;3.50;99.90;;;;;;10045135;28;20064;-69
2024/01/18 19:24:49;;;;;;;8.05;4.40;;;3.50;99.90;;;;;;10048981;28;20091;-69
2024/01/18 19:29:40;;;;;;;5.53;3.78;;;3.50;99.90;;;;;;10044011;28;20065;-69
2024/01/18 19:34:30;;;;;;;7.72;3.70;;;3.40;99.90;;;;;;10050112;28;20029;-69
2024/01/18 19:39:21;;;;;;;7.43;3.80;;;3.40;99.90;;;;;;10052023;28;20022;-68
2024/01/18 19:44:12;;;;;;;11.13;5.35;;;3.40;99.90;;;;;;10055608;28;20033;-68
2024/01/18 19:49:03;;;;;;;11.15;4.03;;;3.50;99.90;;;;;;10051920;28;20408;-69
2024/01/18 19:53:54;;;;;;;7.47;3.90;;;3.40;99.90;;;;;;10052667;28;20025;-67
2024/01/18 19:58:44;;;;;;;6.18;3.75;;;3.40;99.90;;;;;;10052758;28;20555;-69
2024/01/18 20:03:35;;;;;;;6.82;4.20;;;3.30;99.90;;;;;;10053060;28;20053;-72
2024/01/18 20:08:28;;;;;;;9.63;3.88;;;3.30;99.90;;;;;;10046425;28;20125;-69
2024/01/18 20:13:19;;;;;;;9.30;4.32;;;3.30;99.90;;;;;;10042873;28;20029;-70
2024/01/18 20:18:10;;;;;;;8.90;3.95;;;3.20;99.90;;;;;;10048016;28;20143;-70
2024/01/18 20:23:01;;;;;;;9.40;4.38;;;3.20;99.90;;;;;;10040166;28;20064;-71
2024/01/18 20:27:52;;;;;;;8.75;3.72;;;3.20;99.90;;;;;;10053482;28;20030;-70
2024/01/18 20:32:43;;;;;;;6.95;4.53;;;3.20;99.90;;;;;;10051976;28;20045;-70
2024/01/18 20:37:33;;;;;;;7.85;5.00;;;3.10;99.90;;;;;;10055057;28;20029;-71
2024/01/18 20:42:24;;;;;;;8.38;4.68;;;3.10;99.90;;;;;;10048415;28;20107;-68
2024/01/18 20:47:14;;;;;;;7.28;4.00;;;3.10;99.90;;;;;;10049655;28;20125;-67
2024/01/18 20:52:07;;;;;;;11.25;5.15;;;3.10;99.90;;;;;;10055124;28;20044;-68
2024/01/18 20:56:58;;;;;;;9.98;4.63;;;3.20;99.90;;;;;;10055070;28;20092;-70
2024/01/18 21:01:48;;;;;;;11.18;5.47;;;3.10;99.90;;;;;;10054104;28;20557;-69
2024/01/18 21:06:39;;;;;;;9.63;4.68;;;3.10;99.90;;;;;;10069341;28;20421;-69
2024/01/18 21:11:30;;;;;;;9.07;4.05;;;3.10;99.90;;;;;;10071407;28;20410;-68
2024/01/18 21:16:20;;;;;;;9.70;5.00;;;3.00;99.90;;;;;;10071456;28;20032;-69
2024/01/18 21:21:14;;;;;;;9.80;5.45;;;2.90;99.90;;;;;;10063146;28;20046;-69
2024/01/18 21:26:05;;;;;;;10.45;4.20;;;3.00;99.90;;;;;;10065377;28;20550;-69
2024/01/18 21:30:56;;;;;;;6.82;4.35;;;2.90;99.90;;;;;;10073938;28;20028;-67
2024/01/18 21:35:47;;;;;;;11.68;4.90;;;2.90;99.90;;;;;;10064689;28;20543;-69
2024/01/18 21:40:38;;;;;;;10.10;5.97;;;2.90;99.90;;;;;;10054400;28;20048;-68
2024/01/18 21:45:29;;;;;;;9.40;4.47;;;3.00;99.90;;;;;;10055911;28;20033;-68
2024/01/18 21:50:19;;;;;;;9.95;4.43;;;3.00;99.90;;;;;;10061764;28;20036;-68
2024/01/18 21:55:10;;;;;;;10.05;4.95;;;3.00;99.90;;;;;;10060726;28;20568;-67
2024/01/18 22:00:01;;;;;;;10.55;5.45;;;2.90;99.90;;;;;;10059808;28;20044;-69
2024/01/18 22:04:51;;;;;;;7.82;4.60;;;2.90;99.90;;;;;;10053741;28;20519;-68
2024/01/18 22:09:42;;;;;;;10.02;4.40;;;2.90;99.90;;;;;;10054234;28;20037;-68
2024/01/18 22:14:33;;;;;;;9.95;5.75;;;2.90;99.90;;;;;;10062164;28;20120;-71
2024/01/18 22:19:24;;;;;;;12.38;6.05;;;2.90;99.90;;;;;;10060993;28;20582;-74
2024/01/18 22:24:16;;;;;;;11.18;6.63;;;2.90;99.90;;;;;;10060146;28;20033;-70
2024/01/18 22:29:06;;;;;;;10.82;5.85;;;2.80;99.90;;;;;;10060671;28;20030;-71
2024/01/18 22:33:57;;;;;;;12.45;5.82;;;2.80;99.90;;;;;;10060058;28;20041;-71
2024/01/18 22:38:47;;;;;;;11.32;5.53;;;2.80;99.90;;;;;;10060580;28;20041;-71
2024/01/18 22:43:39;;;;;;;12.82;5.82;;;2.70;99.90;;;;;;10059690;28;20056;-71
2024/01/18 22:48:29;;;;;;;10.48;5.18;;;2.70;99.90;;;;;;10057801;28;20120;-70
2024/01/18 22:53:20;;;;;;;10.98;5.20;;;2.70;99.90;;;;;;10060869;28;20688;-71
2024/01/18 22:58:11;;;;;;;10.57;5.35;;;2.70;99.90;;;;;;10056383;28;20018;-70
2024/01/18 23:03:02;;;;;;;12.88;5.45;;;2.60;99.90;;;;;;10057858;28;20033;-69
2024/01/18 23:07:53;;;;;;;11.65;5.25;;;2.70;99.90;;;;;;10075237;28;20136;-71
2024/01/18 23:12:43;;;;;;;13.30;5.55;;;2.70;99.90;;;;;;10070929;28;20029;-70
2024/01/18 23:17:34;;;;;;;7.75;4.35;;;2.60;99.90;;;;;;10076876;28;20040;-69
2024/01/18 23:22:25;;;;;;;10.38;5.40;;;2.50;99.90;;;;;;10079356;28;20391;-70
2024/01/18 23:27:16;;;;;;;12.70;5.32;;;2.50;99.90;;;;;;10077112;28;20017;-70
2024/01/18 23:32:07;;;;;;;10.00;5.30;;;2.50;99.90;;;;;;10075256;28;20216;-70
2024/01/18 23:36:58;;;;;;;12.38;5.80;;;2.40;99.90;;;;;;10072916;28;20093;-71
2024/01/18 23:41:48;;;;;;;13.90;5.80;;;2.50;99.90;;;;;;10080511;28;20044;-69
2024/01/18 23:46:40;;;;;;;11.68;5.18;;;2.50;99.90;;;;;;10076212;28;20593;-70
2024/01/18 23:51:31;;;;;;;10.40;5.15;;;2.50;99.90;;;;;;10073007;28;20086;-70
2024/01/18 23:56:21;;;;;;;10.00;5.22;;;2.40;99.90;;;;;;10073372;28;20070;-71
